Moorefield, West Virginia
Current Conditions -  °F | °C
As of 11:35 AM on Saturday 25 Oct 2014 (Local Time) from KW99 Reporting Station
Clear Clear  
Wind Chill: 64°   Ceiling: Unl
Heat Index: 64°   Visibility: 10mi
Dew Point: 39°   Wind: 14mph
Humidity: 40%   Direction: 230°SW
Pressure: 29.96"   Gusts: 17mph
Location:  39.06°N, 78.97°W
Report Text: KW99 251535Z AUTO 23012G15KT 10SM CLR 18/04 A2996 RMK AO2 T01780041
Loading
Personal Weather Stations






























Interactive Weather Map
Tropical Storm Tracking
New forecast layout! Learn more

10-Day Weather Forecast

Advertisements
Track Severe Weather on mobile